Time;durP1;ratioP1;P1;durP2;ratioP2;P2;SDS_P1;SDS_P2;PMS_P1;PMS_P2;Temp;Humidity;BMP_temperature;BMP_pressure;BME280_temperature;BME280_humidity;BME280_pressure;Samples;Min_cycle;Max_cycle;Signal;HPM_P1;HPM_P2
2022/06/23 00:01:51;;;;;;;5.23;3.10;;;20.90;99.90;;;;;;5063921;28;20288;-62
2022/06/23 00:04:23;;;;;;;4.77;2.90;;;20.80;99.90;;;;;;5063295;28;20198;-62
2022/06/23 00:06:55;;;;;;;4.60;2.87;;;20.80;99.90;;;;;;5067083;28;20704;-62
2022/06/23 00:09:32;;;;;;;6.63;3.50;;;20.80;99.90;;;;;;5062279;28;20190;-62
2022/06/23 00:12:12;;;;;;;3.50;2.90;;;20.70;99.90;;;;;;5063579;28;20282;-62
2022/06/23 00:14:41;;;;;;;3.30;2.97;;;20.70;99.90;;;;;;5060913;28;20711;-62
2022/06/23 00:17:17;;;;;;;3.77;2.77;;;20.70;99.90;;;;;;5062074;28;20197;-62
2022/06/23 00:19:46;;;;;;;4.53;2.80;;;20.60;99.90;;;;;;5056033;28;20219;-62
2022/06/23 00:22:15;;;;;;;3.70;3.40;;;20.60;99.90;;;;;;5065934;28;20223;-63
2022/06/23 00:24:44;;;;;;;3.13;2.87;;;20.50;99.90;;;;;;5059869;28;20207;-62
2022/06/23 00:27:18;;;;;;;3.27;2.63;;;20.40;99.90;;;;;;5065082;28;20555;-62
2022/06/23 00:29:47;;;;;;;4.10;3.13;;;20.40;99.90;;;;;;5065576;28;20245;-63
2022/06/23 00:32:16;;;;;;;3.20;2.90;;;20.30;99.90;;;;;;5065410;28;20196;-62
2022/06/23 00:34:52;;;;;;;7.13;3.10;;;20.20;99.90;;;;;;5060148;28;20201;-63
2022/06/23 00:37:21;;;;;;;3.53;2.83;;;20.20;99.90;;;;;;5063955;28;20196;-62
2022/06/23 00:39:54;;;;;;;5.93;2.90;;;20.10;99.90;;;;;;5064385;28;20552;-63
2022/06/23 00:42:27;;;;;;;3.20;2.87;;;20.10;99.90;;;;;;5065428;28;20200;-62
2022/06/23 00:45:00;;;;;;;4.07;2.80;;;20.00;99.90;;;;;;5063569;28;20222;-62
2022/06/23 00:47:36;;;;;;;3.03;2.80;;;20.00;99.90;;;;;;5057813;28;20796;-62
2022/06/23 00:50:20;;;;;;;4.07;2.90;;;19.90;99.90;;;;;;5062020;28;20651;-63
2022/06/23 00:52:57;;;;;;;3.40;3.10;;;19.90;99.90;;;;;;5066074;28;20204;-62
2022/06/23 00:55:41;;;;;;;2.67;2.57;;;19.90;99.90;;;;;;5081703;28;20328;-63
2022/06/23 00:58:22;;;;;;;3.20;2.90;;;19.90;99.90;;;;;;5068686;28;20200;-63
2022/06/23 01:00:53;;;;;;;4.17;2.97;;;19.90;99.90;;;;;;5067557;28;20568;-62
2022/06/23 01:03:28;;;;;;;3.00;2.80;;;19.90;99.90;;;;;;5082825;28;20211;-63
2022/06/23 01:06:01;;;;;;;4.10;3.20;;;19.90;99.90;;;;;;5066578;28;20203;-62
2022/06/23 01:08:35;;;;;;;5.50;2.60;;;20.00;99.90;;;;;;5066875;28;20856;-62
2022/06/23 01:11:11;;;;;;;4.43;2.63;;;20.00;99.90;;;;;;5078405;28;20225;-63
2022/06/23 01:13:48;;;;;;;2.77;2.57;;;19.90;99.90;;;;;;5065657;28;20219;-63
2022/06/23 01:16:22;;;;;;;3.00;2.47;;;20.00;99.90;;;;;;5066490;28;20195;-62
2022/06/23 01:18:56;;;;;;;3.40;3.10;;;20.00;99.90;;;;;;5059610;28;20216;-63
2022/06/23 01:21:30;;;;;;;2.77;2.57;;;20.00;99.90;;;;;;5044829;28;20331;-63
2022/06/23 01:24:13;;;;;;;2.43;2.33;;;20.00;99.90;;;;;;5065058;28;20203;-62
2022/06/23 01:27:09;;;;;;;5.87;2.60;;;20.00;99.90;;;;;;5067851;28;20194;-63
2022/06/23 01:29:43;;;;;;;3.80;2.70;;;20.00;99.90;;;;;;5060690;28;20195;-62
2022/06/23 01:32:21;;;;;;;4.13;2.87;;;19.90;99.90;;;;;;5067991;28;20644;-62
2022/06/23 01:34:54;;;;;;;4.50;2.90;;;19.80;99.90;;;;;;5063688;28;20211;-62
2022/06/23 01:37:28;;;;;;;2.63;2.43;;;19.80;99.90;;;;;;5065906;28;20200;-62
2022/06/23 01:40:06;;;;;;;2.73;2.50;;;19.80;99.90;;;;;;5066296;28;20202;-62
2022/06/23 01:42:40;;;;;;;5.13;3.03;;;19.80;99.90;;;;;;5064715;28;20291;-62
2022/06/23 01:45:18;;;;;;;2.90;2.70;;;19.70;99.90;;;;;;5065555;28;20967;-62
2022/06/23 01:47:50;;;;;;;5.13;2.60;;;19.70;99.90;;;;;;5067100;28;21279;-62
2022/06/23 01:50:38;;;;;;;2.97;2.77;;;19.60;99.90;;;;;;5066640;28;20188;-62
2022/06/23 01:53:14;;;;;;;3.00;2.70;;;19.60;99.90;;;;;;5063834;28;20249;-62
2022/06/23 01:56:06;;;;;;;3.63;2.87;;;19.70;99.90;;;;;;5063595;28;20279;-62
2022/06/23 01:58:47;;;;;;;3.70;2.80;;;19.70;99.90;;;;;;5067130;28;20266;-62
2022/06/23 02:01:24;;;;;;;2.87;2.67;;;19.60;99.90;;;;;;5094133;28;20296;-62
2022/06/23 02:04:02;;;;;;;4.40;2.70;;;19.60;99.90;;;;;;5067252;28;20639;-62
2022/06/23 02:06:40;;;;;;;4.13;3.00;;;19.60;99.90;;;;;;5066341;28;20295;-63
2022/06/23 02:09:16;;;;;;;7.37;2.97;;;19.60;99.90;;;;;;5062483;28;20206;-62
2022/06/23 02:11:48;;;;;;;3.00;2.80;;;19.50;99.90;;;;;;5064871;28;20283;-62
2022/06/23 02:14:39;;;;;;;9.03;2.83;;;19.50;99.90;;;;;;5065417;28;20196;-62
2022/06/23 02:17:19;;;;;;;3.90;2.57;;;19.40;99.90;;;;;;5067436;28;20188;-62
2022/06/23 02:19:52;;;;;;;3.00;2.90;;;19.40;99.90;;;;;;5067170;28;20730;-62
2022/06/23 02:22:26;;;;;;;4.97;2.70;;;19.30;99.90;;;;;;5068746;28;20247;-62
2022/06/23 02:24:59;;;;;;;3.77;3.03;;;19.30;99.90;;;;;;5060671;28;20200;-62
2022/06/23 02:27:33;;;;;;;3.10;2.70;;;19.20;99.90;;;;;;5065583;28;20230;-62
2022/06/23 02:30:07;;;;;;;2.93;2.70;;;19.10;99.90;;;;;;5066105;28;20199;-62
2022/06/23 02:32:54;;;;;;;3.27;2.90;;;19.10;99.90;;;;;;5060981;28;20190;-62
2022/06/23 02:35:27;;;;;;;2.80;2.70;;;19.10;99.90;;;;;;5063209;28;20198;-63
2022/06/23 02:38:00;;;;;;;3.90;2.80;;;19.10;99.90;;;;;;5068619;28;20207;-62
2022/06/23 02:40:34;;;;;;;3.27;2.97;;;19.10;99.90;;;;;;5065904;28;20195;-62
2022/06/23 02:43:14;;;;;;;2.87;2.73;;;19.10;99.90;;;;;;5062586;28;22150;-62
2022/06/23 02:46:11;;;;;;;4.47;2.67;;;19.00;99.90;;;;;;5097617;28;20222;-63
2022/06/23 02:49:10;;;;;;;3.10;2.90;;;19.00;99.90;;;;;;5065016;28;20228;-62
2022/06/23 02:51:56;;;;;;;4.60;3.13;;;18.90;99.90;;;;;;5066469;28;20626;-63
2022/06/23 02:54:42;;;;;;;3.10;2.80;;;18.90;99.90;;;;;;5063724;28;20196;-62
2022/06/23 02:57:33;;;;;;;2.67;2.50;;;18.90;99.90;;;;;;5065109;28;20219;-62
2022/06/23 03:00:09;;;;;;;3.90;3.00;;;18.90;99.90;;;;;;5065421;28;20192;-62
2022/06/23 03:02:43;;;;;;;2.90;2.70;;;18.80;99.90;;;;;;5065049;28;20290;-63
2022/06/23 03:05:20;;;;;;;4.80;2.90;;;18.80;99.90;;;;;;5062219;28;20223;-62
2022/06/23 03:07:56;;;;;;;3.80;2.60;;;18.80;99.90;;;;;;5064891;28;20195;-62
2022/06/23 03:10:31;;;;;;;2.70;2.60;;;18.70;99.90;;;;;;5063042;28;20198;-62
2022/06/23 03:13:08;;;;;;;2.90;2.70;;;18.70;99.90;;;;;;5061602;28;20210;-63
2022/06/23 03:15:47;;;;;;;2.83;2.60;;;18.70;99.90;;;;;;5067068;28;20276;-62
2022/06/23 03:18:21;;;;;;;7.40;3.10;;;18.70;99.90;;;;;;5063831;28;20200;-62
2022/06/23 03:20:56;;;;;;;3.20;3.00;;;18.70;99.90;;;;;;5061136;28;20566;-62
2022/06/23 03:23:31;;;;;;;4.20;3.17;;;18.60;99.90;;;;;;5064182;28;20199;-62
2022/06/23 03:26:11;;;;;;;4.40;3.00;;;18.60;99.90;;;;;;5062393;28;20271;-62
2022/06/23 03:28:45;;;;;;;3.70;3.10;;;18.50;99.90;;;;;;5099062;28;20209;-62
2022/06/23 03:31:22;;;;;;;3.20;2.90;;;18.50;99.90;;;;;;5080603;28;20188;-62
2022/06/23 03:33:55;;;;;;;5.30;3.23;;;18.50;99.90;;;;;;5065832;28;20251;-62
2022/06/23 03:36:31;;;;;;;4.07;3.27;;;18.50;99.90;;;;;;5063901;28;20196;-62
2022/06/23 03:42:04;;;;;;;4.90;3.10;;;18.40;99.90;;;;;;5094883;28;20233;-63
2022/06/23 03:44:40;;;;;;;3.43;2.80;;;18.40;99.90;;;;;;5062492;28;20267;-62
2022/06/23 03:47:20;;;;;;;2.87;2.67;;;18.40;99.90;;;;;;5064643;28;20248;-62
2022/06/23 03:49:52;;;;;;;2.97;2.77;;;18.30;99.90;;;;;;5061830;28;20206;-63
2022/06/23 03:52:32;;;;;;;7.80;3.37;;;18.30;99.90;;;;;;5065422;28;20694;-62
2022/06/23 03:55:07;;;;;;;7.27;2.80;;;18.30;99.90;;;;;;5065660;28;20210;-63
2022/06/23 03:57:42;;;;;;;3.20;2.90;;;18.30;99.90;;;;;;5094455;28;20688;-62
2022/06/23 04:00:23;;;;;;;3.67;2.93;;;18.30;99.90;;;;;;5064441;28;20202;-62
2022/06/23 04:03:21;;;;;;;3.27;2.97;;;18.20;99.90;;;;;;5065173;28;20215;-62
2022/06/23 04:06:24;;;;;;;3.90;3.03;;;18.20;99.90;;;;;;5071258;28;20189;-62
2022/06/23 04:09:10;;;;;;;3.10;2.50;;;18.20;99.90;;;;;;5050333;28;20238;-62
2022/06/23 04:12:00;;;;;;;3.27;3.07;;;18.20;99.90;;;;;;5064204;28;20527;-63
2022/06/23 04:15:12;;;;;;;3.20;2.60;;;18.20;99.90;;;;;;5063707;28;20288;-62
2022/06/23 04:18:26;;;;;;;3.40;2.97;;;18.10;99.90;;;;;;5063378;28;20549;-63
2022/06/23 04:21:35;;;;;;;6.83;3.10;;;18.10;99.90;;;;;;5066534;28;20298;-63
2022/06/23 04:24:47;;;;;;;3.40;3.10;;;18.10;99.90;;;;;;5057260;28;20204;-62
2022/06/23 04:28:00;;;;;;;3.37;3.00;;;18.10;99.90;;;;;;5065779;28;20212;-62
2022/06/23 04:31:09;;;;;;;3.10;2.80;;;18.10;99.90;;;;;;5063904;28;20284;-63
2022/06/23 04:34:21;;;;;;;3.00;2.90;;;18.10;99.90;;;;;;5067182;28;20206;-63
2022/06/23 04:37:39;;;;;;;3.40;3.20;;;18.10;99.90;;;;;;5062928;28;20203;-63
2022/06/23 04:40:52;;;;;;;3.10;2.90;;;18.20;99.90;;;;;;5069558;28;20200;-62
2022/06/23 04:44:05;;;;;;;3.67;3.33;;;18.30;99.90;;;;;;5068181;28;20211;-63
2022/06/23 04:47:19;;;;;;;5.83;3.80;;;18.40;99.90;;;;;;5066335;28;20596;-62
2022/06/23 04:50:45;;;;;;;5.43;3.80;;;18.40;99.90;;;;;;5063501;28;20235;-62
2022/06/23 04:54:01;;;;;;;4.87;4.40;;;18.50;99.90;;;;;;5066622;28;20629;-63
2022/06/23 04:57:16;;;;;;;3.50;3.20;;;18.60;99.90;;;;;;5062653;28;20212;-63
2022/06/23 05:00:28;;;;;;;7.53;3.40;;;18.70;99.90;;;;;;5066551;28;21085;-62
2022/06/23 05:03:44;;;;;;;4.10;3.20;;;18.70;99.90;;;;;;5067275;28;20212;-63
2022/06/23 05:06:57;;;;;;;4.43;3.40;;;18.80;99.90;;;;;;5067328;28;20228;-63
2022/06/23 05:10:16;;;;;;;4.43;3.53;;;18.90;99.90;;;;;;5061451;28;20296;-62
2022/06/23 05:13:30;;;;;;;5.07;3.00;;;19.00;99.90;;;;;;5064488;28;20228;-62
2022/06/23 05:16:44;;;;;;;5.63;3.20;;;19.10;99.90;;;;;;5063487;28;20322;-62
2022/06/23 05:19:55;;;;;;;5.20;3.37;;;19.20;99.90;;;;;;5068499;28;20210;-63
2022/06/23 05:23:04;;;;;;;3.87;3.37;;;19.30;99.90;;;;;;5065765;28;20228;-62
2022/06/23 05:26:19;;;;;;;5.00;3.57;;;19.40;99.90;;;;;;5067267;28;20242;-62
2022/06/23 05:29:37;;;;;;;3.63;2.87;;;19.50;99.90;;;;;;5063942;28;20224;-62
2022/06/23 05:32:51;;;;;;;5.03;3.90;;;19.60;99.90;;;;;;5058028;28;20285;-62
2022/06/23 05:36:04;;;;;;;4.43;3.90;;;19.70;99.90;;;;;;5036127;28;20291;-63
2022/06/23 05:39:17;;;;;;;6.80;3.97;;;19.80;99.90;;;;;;5045344;28;20268;-63
2022/06/23 05:42:30;;;;;;;7.17;3.87;;;20.00;99.90;;;;;;5043948;28;20279;-63
2022/06/23 05:45:43;;;;;;;4.90;3.57;;;20.10;99.90;;;;;;5039008;28;20664;-62
2022/06/23 05:48:58;;;;;;;6.03;3.77;;;20.20;99.90;;;;;;5049595;28;20232;-62
2022/06/23 05:52:12;;;;;;;7.07;4.07;;;20.40;99.90;;;;;;5046624;28;20202;-62
2022/06/23 05:55:32;;;;;;;7.03;4.13;;;20.60;99.90;;;;;;5044839;28;20201;-62
2022/06/23 05:58:50;;;;;;;4.87;3.60;;;20.80;99.90;;;;;;5045910;28;20279;-62
2022/06/23 06:02:06;;;;;;;8.07;4.27;;;20.90;99.90;;;;;;5041794;28;20552;-62
2022/06/23 06:05:24;;;;;;;6.37;4.63;;;21.10;99.90;;;;;;5043907;28;20197;-63
2022/06/23 06:09:35;;;;;;;9.47;5.37;;;21.30;99.90;;;;;;5041402;28;20247;-63
2022/06/23 06:12:04;;;;;;;7.03;4.53;;;21.50;99.90;;;;;;5039775;28;20271;-63
2022/06/23 06:15:18;;;;;;;9.20;4.80;;;21.50;99.90;;;;;;5045247;28;20228;-63
2022/06/23 06:18:30;;;;;;;9.03;4.87;;;21.70;99.90;;;;;;5044693;28;20208;-63
2022/06/23 06:21:37;;;;;;;12.27;5.60;;;21.90;99.90;;;;;;5048960;28;20194;-62
2022/06/23 06:24:48;;;;;;;7.73;5.13;;;22.00;99.90;;;;;;5047211;28;20197;-63
2022/06/23 06:27:58;;;;;;;13.33;5.97;;;22.20;99.90;;;;;;5049069;28;20208;-63
2022/06/23 06:30:53;;;;;;;16.43;6.00;;;22.30;99.90;;;;;;5050043;28;20786;-63
2022/06/23 06:33:53;;;;;;;12.83;5.73;;;22.50;99.90;;;;;;5046892;28;20204;-63
2022/06/23 06:36:42;;;;;;;18.80;6.20;;;22.70;99.90;;;;;;5047861;28;20331;-63
2022/06/23 06:39:34;;;;;;;10.47;6.27;;;22.70;99.90;;;;;;5047063;28;20196;-63
2022/06/23 06:42:26;;;;;;;12.10;6.80;;;22.90;99.90;;;;;;5041851;28;20769;-63
2022/06/23 06:45:16;;;;;;;10.47;6.57;;;23.00;99.90;;;;;;5039651;28;20212;-63
2022/06/23 06:48:05;;;;;;;11.43;6.50;;;23.10;99.90;;;;;;5043954;28;20233;-63
2022/06/23 06:50:57;;;;;;;11.03;7.13;;;23.20;99.90;;;;;;5046609;28;20500;-63
2022/06/23 06:53:48;;;;;;;10.63;7.23;;;23.30;99.90;;;;;;5048414;28;20642;-63
2022/06/23 06:56:40;;;;;;;10.57;6.77;;;23.40;99.90;;;;;;5047830;28;20221;-63
2022/06/23 06:59:34;;;;;;;13.23;7.30;;;23.50;99.90;;;;;;5041308;28;20287;-63
2022/06/23 07:02:25;;;;;;;12.73;7.87;;;23.40;99.90;;;;;;5047441;28;20751;-63
2022/06/23 07:05:22;;;;;;;13.13;7.77;;;23.40;99.90;;;;;;5039367;28;20189;-63
2022/06/23 07:08:18;;;;;;;15.47;8.17;;;23.50;99.90;;;;;;5046796;28;20209;-62
2022/06/23 07:11:12;;;;;;;11.47;7.50;;;23.60;99.90;;;;;;5045782;28;20216;-63
2022/06/23 07:14:06;;;;;;;8.53;7.63;;;23.60;99.90;;;;;;5040200;28;20640;-63
2022/06/23 07:16:57;;;;;;;12.17;8.40;;;23.70;99.90;;;;;;5044091;28;20217;-62
2022/06/23 07:19:52;;;;;;;15.37;9.17;;;23.90;99.90;;;;;;5045683;28;20755;-62
2022/06/23 07:22:47;;;;;;;15.50;8.83;;;23.90;99.90;;;;;;5048659;28;20220;-63
2022/06/23 07:25:42;;;;;;;15.10;9.17;;;23.90;99.90;;;;;;5045844;28;20596;-63
2022/06/23 07:28:36;;;;;;;14.73;8.67;;;23.90;99.90;;;;;;5044980;28;20555;-62
2022/06/23 07:31:29;;;;;;;14.87;9.03;;;24.00;99.90;;;;;;5046251;28;20210;-63
2022/06/23 07:34:18;;;;;;;12.20;9.13;;;24.10;99.90;;;;;;5039704;28;20205;-63
2022/06/23 07:37:15;;;;;;;16.07;9.80;;;24.10;99.90;;;;;;5046486;28;20552;-61
2022/06/23 07:40:06;;;;;;;14.47;10.27;;;24.20;99.90;;;;;;5042533;28;20230;-63
2022/06/23 07:43:00;;;;;;;16.47;10.20;;;24.20;99.90;;;;;;5046907;28;20225;-63
2022/06/23 07:45:52;;;;;;;20.00;10.30;;;24.20;99.90;;;;;;5043555;28;20202;-63
2022/06/23 07:48:40;;;;;;;14.77;10.67;;;24.20;99.90;;;;;;5043246;28;20319;-63
2022/06/23 07:51:27;;;;;;;13.40;10.33;;;24.20;99.90;;;;;;5047037;28;20214;-63
2022/06/23 07:54:19;;;;;;;18.40;10.93;;;24.20;99.90;;;;;;5041958;28;20221;-63
2022/06/23 07:57:07;;;;;;;16.00;11.20;;;24.00;99.90;;;;;;5044484;28;20221;-62
2022/06/23 08:00:01;;;;;;;16.27;10.60;;;23.80;99.90;;;;;;5041902;28;20705;-63
2022/06/23 08:02:52;;;;;;;11.90;10.10;;;24.00;99.90;;;;;;5047254;28;20301;-63
2022/06/23 08:05:44;;;;;;;15.27;9.60;;;24.20;99.90;;;;;;5049242;28;20658;-62
2022/06/23 08:08:35;;;;;;;14.73;9.77;;;24.50;99.90;;;;;;5046337;28;20218;-62
2022/06/23 08:16:49;;;;;;;18.90;9.80;;;25.10;99.90;;;;;;5041999;28;20207;-63
2022/06/23 08:18:08;;;;;;;12.33;9.50;;;25.10;99.90;;;;;;5043926;28;20299;-62
2022/06/23 08:21:09;;;;;;;14.93;9.43;;;25.20;99.90;;;;;;5048539;28;20261;-62
2022/06/23 08:24:03;;;;;;;10.90;9.17;;;25.30;99.90;;;;;;5047623;28;20672;-63
2022/06/23 08:26:56;;;;;;;14.73;8.77;;;25.20;99.90;;;;;;5044105;28;20195;-63
2022/06/23 08:29:48;;;;;;;13.70;9.13;;;25.00;99.90;;;;;;5045135;28;20206;-62
2022/06/23 08:32:37;;;;;;;10.13;8.93;;;24.80;99.90;;;;;;5042676;28;20222;-63
2022/06/23 08:35:33;;;;;;;14.60;9.47;;;24.70;99.90;;;;;;5046135;28;20290;-62
2022/06/23 08:38:26;;;;;;;14.60;9.63;;;24.70;99.90;;;;;;5047450;28;20223;-62
2022/06/23 08:41:28;;;;;;;19.03;10.83;;;24.90;99.90;;;;;;5046601;28;20277;-62
2022/06/23 08:44:41;;;;;;;15.50;9.83;;;25.40;99.90;;;;;;5040691;28;20216;-62
2022/06/23 08:47:39;;;;;;;12.27;10.30;;;25.60;99.90;;;;;;5043605;28;20239;-63
2022/06/23 08:50:46;;;;;;;10.27;8.20;;;25.70;99.90;;;;;;5038715;28;20579;-63
2022/06/23 08:53:40;;;;;;;9.73;7.40;;;25.60;99.90;;;;;;5047200;28;20208;-63
2022/06/23 08:56:35;;;;;;;13.53;7.93;;;25.60;99.90;;;;;;5041234;28;20224;-63
2022/06/23 08:59:30;;;;;;;9.80;8.03;;;25.60;99.90;;;;;;5043134;28;20349;-63
2022/06/23 09:02:24;;;;;;;11.20;7.53;;;25.40;99.90;;;;;;5046479;28;20209;-63
2022/06/23 09:05:43;;;;;;;8.30;7.53;;;25.60;99.90;;;;;;5043934;28;20215;-63
2022/06/23 09:08:35;;;;;;;15.23;9.23;;;26.10;99.90;;;;;;5046350;28;20213;-63
2022/06/23 09:11:51;;;;;;;8.57;7.27;;;26.20;99.90;;;;;;5046072;28;20762;-63
2022/06/23 09:15:28;;;;;;;12.03;7.33;;;26.00;99.90;;;;;;5049855;28;20648;-63
2022/06/23 09:19:07;;;;;;;7.43;6.83;;;26.10;99.90;;;;;;4987910;28;20891;-63
2022/06/23 09:22:14;;;;;;;10.43;7.00;;;26.10;99.90;;;;;;4988992;28;20223;-63
2022/06/23 09:25:11;;;;;;;7.90;7.00;;;26.10;99.90;;;;;;4987689;28;20749;-63
2022/06/23 09:28:13;;;;;;;12.47;6.87;;;26.40;99.90;;;;;;5044701;28;20209;-63
2022/06/23 09:31:19;;;;;;;8.27;6.70;;;26.20;99.90;;;;;;5046800;28;20263;-63
2022/06/23 09:34:18;;;;;;;10.30;6.60;;;26.10;99.90;;;;;;5049054;28;20789;-63
2022/06/23 09:37:25;;;;;;;7.77;6.97;;;26.10;99.90;;;;;;5049175;28;20251;-63
2022/06/23 09:40:38;;;;;;;7.53;6.60;;;26.20;99.90;;;;;;5045657;28;20307;-63
2022/06/23 09:43:56;;;;;;;9.70;6.73;;;26.70;99.90;;;;;;5045165;28;20240;-62
2022/06/23 09:46:59;;;;;;;6.63;6.07;;;27.20;99.90;;;;;;5047568;28;20201;-62
2022/06/23 09:50:00;;;;;;;9.00;6.80;;;27.40;99.90;;;;;;5050248;28;20295;-62
2022/06/23 09:53:29;;;;;;;10.90;7.33;;;27.00;99.90;;;;;;5050024;28;20258;-62
2022/06/23 09:56:32;;;;;;;7.00;6.30;;;26.90;99.90;;;;;;5043774;28;20299;-63
2022/06/23 10:00:02;;;;;;;7.57;6.63;;;26.70;99.90;;;;;;5047049;28;20212;-62
2022/06/23 10:03:00;;;;;;;7.50;6.80;;;26.90;99.90;;;;;;5038074;28;20205;-62
2022/06/23 10:06:14;;;;;;;7.43;5.97;;;27.30;99.90;;;;;;5046139;28;20221;-62
2022/06/23 10:09:11;;;;;;;6.60;5.90;;;27.60;99.90;;;;;;5045598;28;20204;-62
2022/06/23 10:12:13;;;;;;;7.37;6.57;;;27.70;99.90;;;;;;5045890;28;20279;-61
2022/06/23 10:15:13;;;;;;;7.50;5.97;;;27.80;99.90;;;;;;5042259;28;20204;-62
2022/06/23 10:18:25;;;;;;;7.63;6.57;;;27.70;99.90;;;;;;5047435;28;20285;-61
2022/06/23 10:21:22;;;;;;;7.43;6.53;;;27.70;99.90;;;;;;5046339;28;20922;-62
2022/06/23 10:24:28;;;;;;;7.60;6.90;;;27.60;99.90;;;;;;5044883;28;20677;-62
2022/06/23 10:27:31;;;;;;;9.03;7.40;;;27.90;99.90;;;;;;5044093;28;20633;-62
2022/06/23 10:30:29;;;;;;;8.18;6.93;;;28.20;99.90;;;;;;5046684;28;20198;-62
2022/06/23 10:34:00;;;;;;;7.40;6.70;;;28.40;99.90;;;;;;5049584;28;20292;-62
2022/06/23 10:37:03;;;;;;;9.18;6.50;;;28.50;99.90;;;;;;5042604;28;20204;-62
2022/06/23 10:40:16;;;;;;;10.45;7.50;;;28.20;99.90;;;;;;5045271;28;20232;-62
2022/06/23 10:43:45;;;;;;;9.10;7.37;;;27.90;99.90;;;;;;5047041;28;20647;-62
2022/06/23 10:46:38;;;;;;;13.65;6.65;;;28.20;99.90;;;;;;5042888;28;20569;-62
2022/06/23 10:49:43;;;;;;;9.95;6.80;;;28.30;99.90;;;;;;5046177;28;20216;-62
2022/06/23 10:52:47;;;;;;;7.00;6.40;;;28.10;99.90;;;;;;5047534;28;20209;-62
2022/06/23 10:55:50;;;;;;;7.93;6.95;;;28.10;99.90;;;;;;5047681;28;20220;-62
2022/06/23 10:59:14;;;;;;;11.20;7.40;;;28.20;99.90;;;;;;5040057;28;20675;-62
2022/06/23 11:02:33;;;;;;;8.40;7.40;;;28.20;99.90;;;;;;5047270;28;20196;-62
2022/06/23 11:05:44;;;;;;;11.27;7.70;;;28.00;99.90;;;;;;5048581;28;20300;-62
2022/06/23 11:08:54;;;;;;;11.80;7.47;;;27.80;99.90;;;;;;5046689;28;20201;-62
2022/06/23 11:11:52;;;;;;;7.93;6.90;;;27.90;99.90;;;;;;5042965;28;20274;-61
2022/06/23 11:15:01;;;;;;;11.97;7.27;;;28.00;99.90;;;;;;5049526;28;20220;-62
2022/06/23 11:18:01;;;;;;;8.60;7.00;;;28.20;99.90;;;;;;5045330;28;20593;-62
2022/06/23 11:21:00;;;;;;;7.05;6.35;;;28.50;99.90;;;;;;5046012;28;20652;-62
2022/06/23 11:23:54;;;;;;;9.43;7.20;;;28.60;99.90;;;;;;5049397;28;20209;-63
2022/06/23 11:26:53;;;;;;;8.27;6.30;;;28.70;99.90;;;;;;5043358;28;20236;-62
2022/06/23 11:30:04;;;;;;;11.17;7.17;;;28.60;99.90;;;;;;5048870;28;20205;-62
2022/06/23 11:33:10;;;;;;;10.10;6.80;;;28.20;99.90;;;;;;5045337;28;20221;-63
2022/06/23 11:36:12;;;;;;;9.73;6.77;;;28.00;99.90;;;;;;5042885;28;20205;-62
2022/06/23 11:39:34;;;;;;;7.00;6.40;;;28.10;99.90;;;;;;5046786;28;20228;-62
2022/06/23 11:42:51;;;;;;;8.07;7.13;;;28.40;99.90;;;;;;5027064;28;20332;-62
2022/06/23 11:46:05;;;;;;;8.98;6.75;;;28.50;99.90;;;;;;5046487;28;21134;-62
2022/06/23 11:49:11;;;;;;;12.73;7.30;;;28.50;99.90;;;;;;5046520;28;20829;-63
2022/06/23 11:52:10;;;;;;;10.63;6.93;;;28.40;99.90;;;;;;5045300;28;20243;-62
2022/06/23 11:55:24;;;;;;;11.70;6.83;;;28.10;99.90;;;;;;5047749;28;20248;-62
2022/06/23 11:58:36;;;;;;;6.77;6.10;;;28.10;99.90;;;;;;5045605;28;20220;-61
2022/06/23 12:01:24;;;;;;;8.87;6.60;;;28.40;99.90;;;;;;5044323;28;20224;-62
2022/06/23 12:04:38;;;;;;;11.60;6.53;;;28.40;99.90;;;;;;5046147;28;20239;-60
2022/06/23 12:07:55;;;;;;;9.03;5.73;;;28.50;99.90;;;;;;5050453;28;20209;-62
2022/06/23 12:10:41;;;;;;;6.63;5.70;;;28.20;99.90;;;;;;5046929;28;20577;-61
2022/06/23 12:13:33;;;;;;;5.63;5.10;;;28.40;99.90;;;;;;5048385;28;20228;-62
2022/06/23 12:16:20;;;;;;;6.80;4.97;;;28.50;99.90;;;;;;5045267;28;20240;-61
2022/06/23 12:19:13;;;;;;;6.07;4.33;;;28.50;99.90;;;;;;5049348;28;20217;-61
2022/06/23 12:22:09;;;;;;;6.47;5.00;;;28.60;99.90;;;;;;5044885;28;20672;-61
2022/06/23 12:25:06;;;;;;;19.80;4.70;;;28.70;99.90;;;;;;5048577;28;20259;-62
2022/06/23 12:28:07;;;;;;;7.33;4.53;;;28.70;99.90;;;;;;5048056;28;20232;-61
2022/06/23 12:31:03;;;;;;;5.27;4.20;;;28.40;99.90;;;;;;5046781;28;20213;-62
2022/06/23 12:34:00;;;;;;;8.50;4.10;;;28.40;99.90;;;;;;5045322;28;20224;-61
2022/06/23 12:36:56;;;;;;;6.30;3.87;;;28.20;99.90;;;;;;5042205;28;20202;-62
2022/06/23 12:39:49;;;;;;;10.20;4.23;;;28.10;99.90;;;;;;5038181;28;20213;-62
2022/06/23 12:42:37;;;;;;;4.00;3.70;;;28.40;99.90;;;;;;5044597;28;20664;-61
2022/06/23 12:45:40;;;;;;;5.57;3.90;;;28.40;99.90;;;;;;5047777;28;20687;-62
2022/06/23 12:48:43;;;;;;;5.40;3.50;;;28.40;99.90;;;;;;5050028;28;20263;-62
2022/06/23 12:51:47;;;;;;;5.33;3.40;;;28.60;99.90;;;;;;5050237;28;20279;-62
2022/06/23 12:55:01;;;;;;;4.80;3.80;;;28.70;99.90;;;;;;5050455;28;20759;-62
2022/06/23 12:58:14;;;;;;;4.23;3.10;;;28.70;99.90;;;;;;5051628;28;20225;-62
2022/06/23 13:01:11;;;;;;;5.13;3.20;;;28.80;99.90;;;;;;5049401;28;20201;-61
2022/06/23 13:04:04;;;;;;;6.00;3.40;;;28.70;99.90;;;;;;5047246;28;20213;-62
2022/06/23 13:07:02;;;;;;;6.67;3.67;;;28.70;99.90;;;;;;5050898;28;20217;-62
2022/06/23 13:09:55;;;;;;;6.23;3.70;;;28.70;99.90;;;;;;5045370;28;20732;-61
2022/06/23 13:13:02;;;;;;;5.03;2.87;;;28.90;99.90;;;;;;5051335;28;20675;-62
2022/06/23 13:15:53;;;;;;;4.63;2.97;;;29.00;99.90;;;;;;5050146;28;20876;-61
2022/06/23 13:18:43;;;;;;;5.27;3.00;;;29.10;99.90;;;;;;5050371;28;20300;-61
2022/06/23 13:21:34;;;;;;;3.70;2.97;;;29.20;99.90;;;;;;5049913;28;20241;-62
2022/06/23 13:24:24;;;;;;;5.80;3.30;;;29.10;99.90;;;;;;5047149;28;20205;-61
2022/06/23 13:27:16;;;;;;;3.17;2.97;;;29.00;99.90;;;;;;5047934;28;20237;-62
2022/06/23 13:30:08;;;;;;;4.80;3.20;;;28.80;99.90;;;;;;5041083;28;20224;-62
2022/06/23 13:33:03;;;;;;;6.90;3.30;;;28.80;99.90;;;;;;5048671;28;20212;-61
2022/06/23 13:35:59;;;;;;;4.97;3.10;;;28.90;99.90;;;;;;5048676;28;20209;-62
2022/06/23 13:39:00;;;;;;;5.80;2.83;;;29.20;99.90;;;;;;5051162;28;20205;-62
2022/06/23 13:41:54;;;;;;;8.35;2.95;;;29.60;99.90;;;;;;5043574;28;20221;-62
2022/06/23 13:44:53;;;;;;;4.85;2.90;;;29.60;99.90;;;;;;5051760;28;20669;-62
2022/06/23 13:47:50;;;;;;;7.13;2.80;;;29.60;99.90;;;;;;5046919;28;20319;-62
2022/06/23 13:50:43;;;;;;;5.00;2.75;;;29.30;99.90;;;;;;5048419;28;20201;-61
2022/06/23 13:53:37;;;;;;;3.87;2.80;;;29.10;99.90;;;;;;5048165;28;20217;-62
2022/06/23 13:56:35;;;;;;;23.83;3.47;;;29.10;99.90;;;;;;5051275;28;20221;-61
2022/06/23 13:59:28;;;;;;;4.17;2.80;;;29.10;99.90;;;;;;5047412;28;20225;-62
2022/06/23 14:02:22;;;;;;;5.82;2.90;;;29.50;99.90;;;;;;5047455;28;20213;-62
2022/06/23 14:05:16;;;;;;;4.03;2.13;;;30.00;99.90;;;;;;5047967;28;20751;-62
2022/06/23 14:08:12;;;;;;;4.13;2.40;;;30.00;99.90;;;;;;5046142;28;20295;-62
2022/06/23 14:11:03;;;;;;;3.28;2.20;;;30.10;99.90;;;;;;5044873;28;20692;-62
2022/06/23 14:13:56;;;;;;;2.55;2.30;;;30.40;99.90;;;;;;5048865;28;20222;-61
2022/06/23 14:16:50;;;;;;;2.00;1.90;;;30.50;99.90;;;;;;5046832;28;20783;-61
2022/06/23 14:19:48;;;;;;;3.00;2.42;;;30.60;99.90;;;;;;5046928;28;20201;-62
2022/06/23 14:22:43;;;;;;;3.25;2.63;;;30.70;99.90;;;;;;5051064;28;20239;-62
2022/06/23 14:25:35;;;;;;;2.35;1.77;;;30.70;99.90;;;;;;5047846;28;20224;-62
2022/06/23 14:28:28;;;;;;;3.55;1.95;;;31.00;99.90;;;;;;5048506;28;20227;-62
2022/06/23 14:31:22;;;;;;;3.70;2.00;;;31.20;99.90;;;;;;5045657;28;20301;-62
2022/06/23 14:34:18;;;;;;;2.85;1.80;;;31.10;99.90;;;;;;5045706;28;20541;-62
2022/06/23 14:37:13;;;;;;;6.95;2.17;;;31.20;99.90;;;;;;5047936;28;20213;-62
2022/06/23 14:40:03;;;;;;;2.35;2.10;;;31.10;99.90;;;;;;5044939;28;20548;-61
2022/06/23 14:43:24;;;;;;;2.05;1.50;;;30.70;99.90;;;;;;5048419;28;20300;-62
2022/06/23 14:46:28;;;;;;;2.40;1.83;;;30.60;99.90;;;;;;5046298;28;20213;-62
2022/06/23 14:49:30;;;;;;;4.75;1.73;;;30.70;99.90;;;;;;5047371;28;20227;-62
2022/06/23 14:52:25;;;;;;;4.07;1.60;;;30.90;99.90;;;;;;5047919;28;20220;-62
2022/06/23 14:55:21;;;;;;;1.70;1.60;;;31.30;99.90;;;;;;5048082;28;20215;-61
2022/06/23 14:58:13;;;;;;;1.88;1.60;;;31.30;99.90;;;;;;5040356;28;20241;-62
2022/06/23 15:01:05;;;;;;;1.95;1.85;;;31.00;99.90;;;;;;5046988;28;20211;-62
2022/06/23 15:03:59;;;;;;;3.88;1.77;;;30.70;99.90;;;;;;5044480;28;20271;-62
2022/06/23 15:06:51;;;;;;;3.47;1.90;;;30.80;99.90;;;;;;5047682;28;20754;-63
2022/06/23 15:09:48;;;;;;;2.03;1.83;;;30.60;99.90;;;;;;5045734;28;20681;-62
2022/06/23 15:12:40;;;;;;;1.55;1.42;;;31.00;99.90;;;;;;5044033;28;20210;-62